Time;durP1;ratioP1;P1;durP2;ratioP2;P2;SDS_P1;SDS_P2;PMS_P1;PMS_P2;Temp;Humidity;BMP_temperature;BMP_pressure;BME280_temperature;BME280_humidity;BME280_pressure;Samples;Min_cycle;Max_cycle;Signal;HPM_P1;HPM_P2
2024/03/21 00:00:19;;;;;;;24.17;13.05;;;;;;;-145.63;100.00;61273.97;5117794;27;20459;-64
2024/03/21 00:02:47;;;;;;;19.58;12.07;;;;;;;-145.63;100.00;61273.97;5136410;27;20132;-63
2024/03/21 00:05:14;;;;;;;27.38;12.65;;;;;;;-145.63;100.00;61273.97;5134744;27;20099;-64
2024/03/21 00:07:46;;;;;;;23.23;11.82;;;;;;;-145.63;100.00;61273.97;5134759;27;20055;-64
2024/03/21 00:10:13;;;;;;;25.02;13.02;;;;;;;-145.63;100.00;61273.97;5132146;27;20042;-64
2024/03/21 00:12:39;;;;;;;20.40;12.30;;;;;;;-145.63;100.00;61273.97;5117807;27;20110;-63
2024/03/21 00:15:06;;;;;;;23.45;12.07;;;;;;;-145.63;100.00;61273.97;5128646;27;20042;-64
2024/03/21 00:17:32;;;;;;;18.52;11.68;;;;;;;-145.63;100.00;61273.97;5127628;27;20028;-63
2024/03/21 00:19:58;;;;;;;23.77;13.02;;;;;;;-145.63;100.00;61273.97;5119429;27;20082;-63
2024/03/21 00:22:24;;;;;;;21.35;12.65;;;;;;;-145.63;100.00;61273.97;5135839;27;20023;-63
2024/03/21 00:24:49;;;;;;;19.90;12.50;;;;;;;-145.63;100.00;61273.97;5097964;28;20036;-64
2024/03/21 00:27:15;;;;;;;24.23;12.10;;;;;;;-145.63;100.00;61273.97;5130210;27;20048;-62
2024/03/21 00:29:41;;;;;;;23.45;12.43;;;;;;;-145.63;100.00;61273.97;5126018;27;20042;-63
2024/03/21 00:32:06;;;;;;;18.85;11.50;;;;;;;-145.63;100.00;61273.97;5120237;27;20023;-62
2024/03/21 00:34:33;;;;;;;21.88;12.40;;;;;;;-145.63;100.00;61273.97;5116890;27;20034;-62
2024/03/21 00:36:58;;;;;;;22.92;12.52;;;;;;;-145.63;100.00;61273.97;5135653;27;20447;-63
2024/03/21 00:39:24;;;;;;;25.90;11.68;;;;;;;-145.63;100.00;61273.97;5119688;27;20031;-64
2024/03/21 00:41:50;;;;;;;19.48;11.80;;;;;;;-145.63;100.00;61273.97;5120142;27;20073;-64
2024/03/21 00:44:16;;;;;;;20.58;12.18;;;;;;;-145.63;100.00;61273.97;5121026;27;20030;-64
2024/03/21 00:46:42;;;;;;;19.10;11.43;;;;;;;-145.63;100.00;61273.97;5130027;27;20020;-65
2024/03/21 00:49:11;;;;;;;21.73;11.40;;;;;;;-145.63;100.00;61273.97;5135528;27;20027;-64
2024/03/21 00:51:38;;;;;;;21.52;12.02;;;;;;;-145.63;100.00;61273.97;5130537;27;20023;-64
2024/03/21 00:54:05;;;;;;;22.08;12.40;;;;;;;-145.63;100.00;61273.97;5122565;27;20028;-63
2024/03/21 00:56:31;;;;;;;23.58;12.25;;;;;;;-145.63;100.00;61273.97;5123014;27;20110;-63
2024/03/21 00:59:00;;;;;;;20.02;11.93;;;;;;;-145.63;100.00;61273.97;5113301;28;20378;-62
2024/03/21 01:01:26;;;;;;;21.05;12.70;;;;;;;-145.63;100.00;61273.97;5114879;28;20040;-64
2024/03/21 01:03:52;;;;;;;23.80;12.77;;;;;;;-145.63;100.00;61273.97;5115012;28;20035;-63
2024/03/21 01:06:18;;;;;;;22.45;13.07;;;;;;;-145.63;100.00;61273.97;5129429;27;20034;-63
2024/03/21 01:08:43;;;;;;;22.58;13.18;;;;;;;-145.63;100.00;61273.97;5125237;27;20080;-63
2024/03/21 01:11:09;;;;;;;22.63;12.40;;;;;;;-145.63;100.00;61273.97;5119438;27;20156;-63
2024/03/21 01:13:35;;;;;;;20.42;12.05;;;;;;;-145.63;100.00;61273.97;5135009;27;20027;-64
2024/03/21 01:16:01;;;;;;;18.40;11.80;;;;;;;-145.63;100.00;61273.97;5114366;28;20027;-64
2024/03/21 01:18:35;;;;;;;25.98;12.13;;;;;;;-145.63;100.00;61273.97;5118762;27;20032;-64
2024/03/21 01:21:02;;;;;;;20.35;12.68;;;;;;;-145.63;100.00;61273.97;5126422;27;20490;-64
2024/03/21 01:23:29;;;;;;;20.80;11.85;;;;;;;-145.63;100.00;61273.97;5127045;27;20115;-65
2024/03/21 01:25:54;;;;;;;21.27;12.52;;;;;;;-145.63;100.00;61273.97;5117143;27;20077;-63
2024/03/21 01:28:20;;;;;;;24.15;12.52;;;;;;;-145.63;100.00;61273.97;5134812;27;20027;-63
2024/03/21 01:30:45;;;;;;;20.05;12.65;;;;;;;-145.63;100.00;61273.97;5134643;27;20389;-64
2024/03/21 01:33:11;;;;;;;22.33;13.00;;;;;;;-145.63;100.00;61273.97;5120616;27;20467;-63
2024/03/21 01:35:37;;;;;;;24.88;12.88;;;;;;;-145.63;100.00;61273.97;5124793;27;20115;-63
2024/03/21 01:38:04;;;;;;;25.05;11.73;;;;;;;-145.63;100.00;61273.97;5120264;27;20039;-64
2024/03/21 01:40:30;;;;;;;20.85;12.30;;;;;;;-145.63;100.00;61273.97;5126428;27;20059;-64
2024/03/21 01:42:56;;;;;;;20.92;12.02;;;;;;;-145.63;100.00;61273.97;5134263;27;20064;-64
2024/03/21 01:45:22;;;;;;;19.50;12.70;;;;;;;-145.63;100.00;61273.97;5119087;27;20032;-64
2024/03/21 01:47:47;;;;;;;22.15;12.38;;;;;;;-145.63;100.00;61273.97;5113700;28;20428;-63
2024/03/21 01:50:13;;;;;;;23.85;12.77;;;;;;;-145.63;100.00;61273.97;5114321;27;20460;-64
2024/03/21 01:52:42;;;;;;;18.63;12.05;;;;;;;-145.63;100.00;61273.97;5113996;28;20028;-64
2024/03/21 01:55:13;;;;;;;17.95;12.23;;;;;;;-145.63;100.00;61273.97;5134089;27;20080;-63
2024/03/21 01:57:38;;;;;;;25.17;12.38;;;;;;;-145.63;100.00;61273.97;5116895;27;20102;-65
2024/03/21 02:00:05;;;;;;;25.17;12.88;;;;;;;-145.63;100.00;61273.97;5125852;27;20059;-64
2024/03/21 02:02:31;;;;;;;22.60;13.43;;;;;;;-145.63;100.00;61273.97;5134313;27;20055;-64
2024/03/21 02:04:57;;;;;;;20.08;12.75;;;;;;;-145.63;100.00;61273.97;5134019;27;20069;-64
2024/03/21 02:07:23;;;;;;;24.67;13.27;;;;;;;-145.63;100.00;61273.97;5133766;27;20062;-64
2024/03/21 02:09:50;;;;;;;26.73;13.10;;;;;;;-145.63;100.00;61273.97;5115388;27;20081;-64
2024/03/21 02:12:42;;;;;;;25.25;12.77;;;;;;;-145.63;100.00;61273.97;5127263;27;20023;-63
2024/03/21 02:15:09;;;;;;;24.42;13.13;;;;;;;-145.63;100.00;61273.97;5121075;27;20033;-64
2024/03/21 02:17:34;;;;;;;20.65;12.30;;;;;;;-145.63;100.00;61273.97;5121446;27;20027;-64
2024/03/21 02:20:00;;;;;;;23.27;12.77;;;;;;;-145.63;100.00;61273.97;5130919;27;20032;-63
2024/03/21 02:22:38;;;;;;;23.00;12.85;;;;;;;-145.63;100.00;61273.97;5094897;28;20038;-65
2024/03/21 02:25:12;;;;;;;20.95;13.02;;;;;;;-145.63;100.00;61273.97;5115158;27;20499;-64
2024/03/21 02:27:41;;;;;;;25.75;15.43;;;;;;;-145.63;100.00;61273.97;5116215;27;20106;-63
2024/03/21 02:30:09;;;;;;;25.95;13.65;;;;;;;-145.63;100.00;61273.97;5113237;28;20034;-63
2024/03/21 02:32:37;;;;;;;23.38;12.85;;;;;;;-145.63;100.00;61273.97;5121224;27;20027;-63
2024/03/21 02:35:04;;;;;;;19.80;13.23;;;;;;;-145.63;100.00;61273.97;5131102;27;20079;-65
2024/03/21 02:37:31;;;;;;;25.58;13.40;;;;;;;-145.63;100.00;61273.97;5132955;27;20072;-64
2024/03/21 02:39:56;;;;;;;27.90;14.57;;;;;;;-145.63;100.00;61273.97;5129736;27;20027;-63
2024/03/21 02:42:24;;;;;;;23.75;13.90;;;;;;;-145.63;100.00;61273.97;5118884;28;20050;-64
2024/03/21 02:44:50;;;;;;;23.90;13.65;;;;;;;-145.63;100.00;61273.97;5112710;28;20034;-64
2024/03/21 02:47:17;;;;;;;24.88;14.10;;;;;;;-145.63;100.00;61273.97;5127123;28;20027;-63
2024/03/21 02:49:43;;;;;;;26.67;14.60;;;;;;;-145.63;100.00;61273.97;5113487;28;20085;-62
2024/03/21 02:52:09;;;;;;;24.55;14.68;;;;;;;-145.63;100.00;61273.97;5133523;28;20023;-63
2024/03/21 02:54:35;;;;;;;25.42;13.90;;;;;;;-145.63;100.00;61273.97;5117252;28;20030;-64
2024/03/21 02:57:03;;;;;;;27.83;14.20;;;;;;;-145.63;100.00;61273.97;5112857;28;20028;-64
2024/03/21 02:59:29;;;;;;;31.30;14.60;;;;;;;-145.63;100.00;61273.97;5119485;28;20027;-63
2024/03/21 03:01:55;;;;;;;19.27;13.23;;;;;;;-145.63;100.00;61273.97;5133359;28;20528;-63
2024/03/21 03:04:21;;;;;;;26.23;14.45;;;;;;;-145.63;100.00;61273.97;5133126;28;20023;-63
2024/03/21 03:06:46;;;;;;;23.60;13.63;;;;;;;-145.63;100.00;61273.97;5133216;28;20124;-63
2024/03/21 03:09:13;;;;;;;24.42;14.00;;;;;;;-145.63;100.00;61273.97;5120042;28;20027;-64
2024/03/21 03:11:39;;;;;;;27.45;14.63;;;;;;;-145.63;100.00;61273.97;5120834;28;20023;-63
2024/03/21 03:14:06;;;;;;;31.83;14.63;;;;;;;-145.63;100.00;61273.97;5129844;28;20030;-62
2024/03/21 03:16:31;;;;;;;25.92;14.77;;;;;;;-145.63;100.00;61273.97;5119204;28;20031;-63
2024/03/21 03:18:57;;;;;;;28.77;15.38;;;;;;;-145.63;100.00;61273.97;5114126;28;20046;-63
2024/03/21 03:21:23;;;;;;;24.80;14.65;;;;;;;-145.63;100.00;61273.97;5108254;28;20051;-65
2024/03/21 03:23:48;;;;;;;28.30;14.88;;;;;;;-145.63;100.00;61273.97;5123512;28;20107;-64
2024/03/21 03:26:14;;;;;;;21.23;12.68;;;;;;;-145.63;100.00;61273.97;5117105;28;20039;-62
2024/03/21 03:28:39;;;;;;;22.42;13.68;;;;;;;-145.63;100.00;61273.97;5133044;28;20102;-63
2024/03/21 03:31:05;;;;;;;20.67;13.35;;;;;;;-145.63;100.00;61273.97;5112489;28;20027;-62
2024/03/21 03:36:15;;;;;;;27.63;15.02;;;;;;;-145.63;100.00;61273.97;5117331;28;20028;-63
2024/03/21 03:38:41;;;;;;;26.52;13.68;;;;;;;-145.63;100.00;61273.97;5126456;27;20035;-63
2024/03/21 03:41:06;;;;;;;28.52;15.48;;;;;;;-145.63;100.00;61273.97;5100705;27;20379;-63
2024/03/21 03:43:32;;;;;;;25.38;14.50;;;;;;;-145.63;100.00;61273.97;5133428;27;20047;-63
2024/03/21 03:45:57;;;;;;;25.73;14.32;;;;;;;-145.63;100.00;61273.97;5134972;27;20027;-63
2024/03/21 03:48:23;;;;;;;29.95;14.88;;;;;;;-145.63;100.00;61273.97;5136552;27;20035;-63
2024/03/21 03:50:49;;;;;;;29.63;14.15;;;;;;;-145.63;100.00;61273.97;5127099;27;20054;-64
2024/03/21 03:53:14;;;;;;;22.95;14.48;;;;;;;-145.63;100.00;61273.97;5120232;27;20059;-62
2024/03/21 03:55:40;;;;;;;28.02;15.18;;;;;;;-145.63;100.00;61273.97;5136682;27;20110;-64
2024/03/21 03:58:05;;;;;;;28.17;14.63;;;;;;;-145.63;100.00;61273.97;5116407;27;20356;-63
2024/03/21 04:00:31;;;;;;;22.48;14.20;;;;;;;-145.63;100.00;61273.97;5130921;27;20115;-64
2024/03/21 04:02:57;;;;;;;25.15;14.27;;;;;;;-145.63;100.00;61273.97;5120406;27;20163;-63
2024/03/21 04:05:24;;;;;;;25.17;14.27;;;;;;;-145.63;100.00;61273.97;5129305;27;20036;-64
2024/03/21 04:07:50;;;;;;;24.42;14.95;;;;;;;-145.63;100.00;61273.97;5116512;27;20020;-64
2024/03/21 04:10:16;;;;;;;24.48;14.88;;;;;;;-145.63;100.00;61273.97;5136221;27;20451;-64
2024/03/21 04:12:42;;;;;;;27.30;14.85;;;;;;;-145.63;100.00;61273.97;5120029;27;20035;-64
2024/03/21 04:15:08;;;;;;;22.17;14.60;;;;;;;-145.63;100.00;61273.97;5127094;27;20035;-64
2024/03/21 04:17:34;;;;;;;25.05;14.80;;;;;;;-145.63;100.00;61273.97;5129463;27;20028;-64
2024/03/21 04:20:06;;;;;;;28.75;14.93;;;;;;;-145.63;100.00;61273.97;5117465;27;20042;-63
2024/03/21 04:22:34;;;;;;;;;;;;;;;-145.63;100.00;61273.97;5136532;27;20139;-65
2024/03/21 04:24:59;;;;;;;30.90;15.43;;;;;;;-145.63;100.00;61273.97;5117080;27;19951;-64
2024/03/21 04:27:25;;;;;;;22.23;15.77;;;;;;;-145.63;100.00;61273.97;5129370;27;20070;-64
2024/03/21 04:29:50;;;;;;;25.52;15.50;;;;;;;-145.63;100.00;61273.97;5134395;27;20102;-64
2024/03/21 04:32:17;;;;;;;26.45;15.35;;;;;;;-145.63;100.00;61273.97;5131409;27;20063;-64
2024/03/21 04:34:43;;;;;;;27.60;16.17;;;;;;;-145.63;100.00;61273.97;5134855;27;20034;-64
2024/03/21 04:37:17;;;;;;;30.50;16.75;;;;;;;-145.63;100.00;61273.97;5127221;27;20482;-64
2024/03/21 04:39:47;;;;;;;26.85;16.30;;;;;;;-145.63;100.00;61273.97;5122439;27;20060;-64
2024/03/21 04:42:14;;;;;;;39.00;16.90;;;;;;;-145.63;100.00;61273.97;5124054;27;20063;-63
2024/03/21 04:44:41;;;;;;;27.33;16.08;;;;;;;-145.63;100.00;61273.97;5122314;27;20092;-64
2024/03/21 04:47:07;;;;;;;27.73;15.60;;;;;;;-145.63;100.00;61273.97;5135224;27;20031;-64
2024/03/21 04:49:32;;;;;;;28.00;16.08;;;;;;;-145.63;100.00;61273.97;5133520;27;20467;-62
2024/03/21 04:51:58;;;;;;;31.73;17.00;;;;;;;-145.63;100.00;61273.97;5121007;27;20127;-62
2024/03/21 04:54:24;;;;;;;30.75;16.92;;;;;;;-145.63;100.00;61273.97;5114488;28;20448;-63
2024/03/21 04:56:49;;;;;;;26.67;15.82;;;;;;;-145.63;100.00;61273.97;5114805;28;20113;-64
2024/03/21 04:59:15;;;;;;;36.00;16.27;;;;;;;-145.63;100.00;61273.97;5117717;27;20023;-64
2024/03/21 05:01:40;;;;;;;27.17;16.83;;;;;;;-145.63;100.00;61273.97;5130039;27;20035;-65
2024/03/21 05:04:06;;;;;;;26.73;16.60;;;;;;;-145.63;100.00;61273.97;5114698;28;20075;-63
2024/03/21 05:06:32;;;;;;;27.98;17.15;;;;;;;-145.63;100.00;61273.97;5128645;27;20046;-63
2024/03/21 05:08:57;;;;;;;26.85;16.63;;;;;;;-145.63;100.00;61273.97;5125155;27;20027;-63
2024/03/21 05:11:23;;;;;;;27.63;16.55;;;;;;;-145.63;100.00;61273.97;5118812;27;20078;-63
2024/03/21 05:13:50;;;;;;;27.40;17.27;;;;;;;-145.63;100.00;61273.97;5134480;27;20027;-61
2024/03/21 05:16:19;;;;;;;31.08;17.45;;;;;;;-145.63;100.00;61273.97;5095682;28;20028;-63
2024/03/21 05:18:44;;;;;;;31.75;17.33;;;;;;;-145.63;100.00;61273.97;5114309;28;20111;-62
2024/03/21 05:21:10;;;;;;;30.13;17.88;;;;;;;-145.63;100.00;61273.97;5124997;27;20531;-63
2024/03/21 05:23:36;;;;;;;31.00;17.20;;;;;;;-145.63;100.00;61273.97;5117941;27;20039;-62
2024/03/21 05:26:01;;;;;;;30.25;17.48;;;;;;;-145.63;100.00;61273.97;5115757;27;20075;-64
2024/03/21 05:28:27;;;;;;;33.08;17.20;;;;;;;-145.63;100.00;61273.97;5132556;27;20525;-64
2024/03/21 05:30:54;;;;;;;27.77;17.73;;;;;;;-145.63;100.00;61273.97;5123739;27;20490;-63
2024/03/21 05:33:20;;;;;;;26.33;17.27;;;;;;;-145.63;100.00;61273.97;5121577;27;20039;-62
2024/03/21 05:35:46;;;;;;;34.67;17.38;;;;;;;-145.63;100.00;61273.97;5113824;28;20038;-63
2024/03/21 05:38:12;;;;;;;26.40;16.60;;;;;;;-145.63;100.00;61273.97;5113871;28;20031;-64
2024/03/21 05:40:39;;;;;;;29.92;17.70;;;;;;;-145.63;100.00;61273.97;5114613;28;20032;-63
2024/03/21 05:43:08;;;;;;;28.85;18.17;;;;;;;-145.63;100.00;61273.97;5132644;27;20383;-63
2024/03/21 05:45:34;;;;;;;33.05;18.17;;;;;;;-145.63;100.00;61273.97;5120103;27;20024;-62
2024/03/21 05:48:00;;;;;;;30.77;17.65;;;;;;;-145.63;100.00;61273.97;5123325;27;20034;-62
2024/03/21 05:50:26;;;;;;;31.00;18.02;;;;;;;-145.63;100.00;61273.97;5132624;27;20027;-62
2024/03/21 05:52:51;;;;;;;26.60;17.08;;;;;;;-145.63;100.00;61273.97;5115747;27;20027;-62
2024/03/21 05:55:17;;;;;;;29.10;18.05;;;;;;;-145.63;100.00;61273.97;5113409;28;20061;-62
2024/03/21 05:57:43;;;;;;;27.05;18.55;;;;;;;-145.63;100.00;61273.97;5129328;27;20436;-62
2024/03/21 06:00:16;;;;;;;31.88;18.67;;;;;;;-145.63;100.00;61273.97;5123144;27;20039;-64
2024/03/21 06:02:42;;;;;;;38.17;18.30;;;;;;;-145.63;100.00;61273.97;5126408;27;20047;-63
2024/03/21 06:05:07;;;;;;;33.70;19.10;;;;;;;-145.63;100.00;61273.97;5131807;27;20066;-63
2024/03/21 06:07:33;;;;;;;31.08;18.40;;;;;;;-145.63;100.00;61273.97;5113202;28;20039;-62
2024/03/21 06:09:59;;;;;;;31.98;19.20;;;;;;;-145.63;100.00;61273.97;5130089;27;20031;-61
2024/03/21 06:12:24;;;;;;;31.33;19.27;;;;;;;-145.63;100.00;61273.97;5120800;27;20035;-62
2024/03/21 06:14:50;;;;;;;32.53;18.95;;;;;;;-145.63;100.00;61273.97;5121278;27;20027;-61
2024/03/21 06:17:15;;;;;;;31.15;19.40;;;;;;;-145.63;100.00;61273.97;5130446;27;20031;-63
2024/03/21 06:19:41;;;;;;;33.75;19.38;;;;;;;-145.63;100.00;61273.97;5113332;28;20114;-62
2024/03/21 06:22:06;;;;;;;28.08;19.08;;;;;;;-145.63;100.00;61273.97;5131908;27;20039;-65
2024/03/21 06:24:32;;;;;;;44.55;19.92;;;;;;;-145.63;100.00;61273.97;5119816;27;20454;-63
2024/03/21 06:26:58;;;;;;;28.30;19.45;;;;;;;-145.63;100.00;61273.97;5121890;27;20035;-63
2024/03/21 06:29:27;;;;;;;28.98;19.25;;;;;;;-145.63;100.00;61273.97;5129337;27;20088;-63
2024/03/21 06:31:53;;;;;;;31.63;19.02;;;;;;;-145.63;100.00;61273.97;5113218;28;20058;-64
2024/03/21 06:34:18;;;;;;;33.28;20.20;;;;;;;-145.63;100.00;61273.97;5133373;27;20460;-64
2024/03/21 06:36:44;;;;;;;30.85;19.27;;;;;;;-145.63;100.00;61273.97;5118042;27;20055;-62
2024/03/21 06:39:12;;;;;;;40.92;20.75;;;;;;;-145.63;100.00;61273.97;5123229;27;20031;-63
2024/03/21 06:41:38;;;;;;;29.13;18.65;;;;;;;-145.63;100.00;61273.97;5126536;27;20028;-63
2024/03/21 06:44:04;;;;;;;35.72;20.52;;;;;;;-145.63;100.00;61273.97;5114009;28;20030;-63
2024/03/21 06:46:30;;;;;;;31.20;20.38;;;;;;;-145.63;100.00;61273.97;5133466;28;20054;-65
2024/03/21 06:48:55;;;;;;;32.80;19.52;;;;;;;-145.63;100.00;61273.97;5133471;28;20067;-64
2024/03/21 06:51:21;;;;;;;29.63;18.17;;;;;;;-145.63;100.00;61273.97;5119009;28;20036;-63
2024/03/21 06:53:46;;;;;;;32.53;20.13;;;;;;;-145.63;100.00;61273.97;5120005;28;20479;-64
2024/03/21 06:56:12;;;;;;;34.13;20.98;;;;;;;-145.63;100.00;61273.97;5131125;28;20482;-63
2024/03/21 06:58:39;;;;;;;32.45;18.80;;;;;;;-145.63;100.00;61273.97;5112917;28;20035;-63
2024/03/21 07:01:05;;;;;;;32.75;20.95;;;;;;;-145.63;100.00;61273.97;5130504;28;20079;-62
2024/03/21 07:03:30;;;;;;;33.30;19.67;;;;;;;-145.63;100.00;61273.97;5133577;28;20020;-63
2024/03/21 07:05:56;;;;;;;33.83;20.35;;;;;;;-145.63;100.00;61273.97;5133171;28;20031;-65
2024/03/21 07:08:22;;;;;;;28.73;19.55;;;;;;;-145.63;100.00;61273.97;5130281;28;20114;-64
2024/03/21 07:10:49;;;;;;;33.10;21.05;;;;;;;-145.63;100.00;61273.97;5133229;28;20019;-66
2024/03/21 07:13:15;;;;;;;32.65;20.83;;;;;;;-145.63;100.00;61273.97;5114198;28;20368;-66
2024/03/21 07:15:42;;;;;;;31.52;18.90;;;;;;;-145.63;100.00;61273.97;5131407;27;20416;-65
2024/03/21 07:18:07;;;;;;;35.53;19.45;;;;;;;-145.63;100.00;61273.97;5126991;27;20032;-65
2024/03/21 07:20:34;;;;;;;39.42;20.05;;;;;;;-145.63;100.00;61273.97;5121622;27;20039;-66
2024/03/21 07:23:00;;;;;;;30.35;19.45;;;;;;;-145.63;100.00;61273.97;5136982;27;20039;-65
2024/03/21 07:25:26;;;;;;;29.30;19.23;;;;;;;-145.63;100.00;61273.97;5116194;28;20130;-65
2024/03/21 07:27:51;;;;;;;31.23;19.20;;;;;;;-145.63;100.00;61273.97;5132335;27;20111;-65
2024/03/21 07:30:18;;;;;;;32.67;19.15;;;;;;;-145.63;100.00;61273.97;5126170;27;20382;-65
2024/03/21 07:32:44;;;;;;;32.33;19.75;;;;;;;-145.63;100.00;61273.97;5122586;27;20031;-65
2024/03/21 07:35:10;;;;;;;28.63;19.40;;;;;;;-145.63;100.00;61273.97;5136920;27;20031;-65
2024/03/21 07:37:35;;;;;;;28.10;19.13;;;;;;;-145.63;100.00;61273.97;5136925;27;20031;-66
2024/03/21 07:40:01;;;;;;;31.70;20.00;;;;;;;-145.63;100.00;61273.97;5152333;27;20019;-66
2024/03/21 07:42:27;;;;;;;33.90;19.92;;;;;;;-145.63;100.00;61273.97;5140068;27;20080;-65
2024/03/21 07:44:54;;;;;;;28.85;18.92;;;;;;;-145.63;100.00;61273.97;5127622;27;20383;-65
2024/03/21 07:47:21;;;;;;;30.55;20.13;;;;;;;-145.63;100.00;61273.97;5125163;27;20027;-65
2024/03/21 07:49:47;;;;;;;32.20;19.08;;;;;;;-145.63;100.00;61273.97;5122282;27;20084;-66
2024/03/21 07:52:12;;;;;;;31.75;19.50;;;;;;;-145.63;100.00;61273.97;5122649;27;20028;-66
2024/03/21 07:54:38;;;;;;;28.70;19.63;;;;;;;-145.63;100.00;61273.97;5126282;27;20054;-66
2024/03/21 07:57:04;;;;;;;30.05;19.15;;;;;;;-145.63;100.00;61273.97;5091260;28;20119;-64
2024/03/21 07:59:29;;;;;;;28.77;17.85;;;;;;;-145.63;100.00;61273.97;5120274;27;20020;-65
2024/03/21 08:01:55;;;;;;;28.25;18.35;;;;;;;-145.63;100.00;61273.97;5129332;27;20458;-65
2024/03/21 08:04:21;;;;;;;27.30;18.67;;;;;;;-145.63;100.00;61273.97;5115014;28;20040;-66
2024/03/21 08:06:46;;;;;;;31.20;17.92;;;;;;;-145.63;100.00;61273.97;5126756;27;20035;-65
2024/03/21 08:09:12;;;;;;;25.17;17.65;;;;;;;-145.63;100.00;61273.97;5120283;27;20066;-65
2024/03/21 08:11:38;;;;;;;31.58;18.80;;;;;;;-145.63;100.00;61273.97;5111311;28;20043;-65
2024/03/21 08:14:04;;;;;;;26.15;18.38;;;;;;;-145.63;100.00;61273.97;5115079;27;20084;-65
2024/03/21 08:16:29;;;;;;;28.40;18.88;;;;;;;-145.63;100.00;61273.97;5115374;28;20050;-64
2024/03/21 08:18:55;;;;;;;27.10;18.30;;;;;;;-145.63;100.00;61273.97;5117998;27;20398;-65
2024/03/21 08:21:21;;;;;;;28.52;18.30;;;;;;;-145.63;100.00;61273.97;5115360;28;20785;-65
2024/03/21 08:23:50;;;;;;;29.48;19.75;;;;;;;-145.63;100.00;61273.97;5121633;27;20111;-65
2024/03/21 08:26:19;;;;;;;30.88;19.48;;;;;;;-145.63;100.00;61273.97;5132660;27;20088;-64
2024/03/21 08:28:45;;;;;;;28.95;18.95;;;;;;;-145.63;100.00;61273.97;5123117;27;20062;-65
2024/03/21 08:31:11;;;;;;;24.67;17.42;;;;;;;-145.63;100.00;61273.97;5133612;27;20407;-64
2024/03/21 08:33:36;;;;;;;25.77;17.02;;;;;;;-145.63;100.00;61273.97;5124336;27;20158;-65
2024/03/21 08:36:02;;;;;;;28.10;18.30;;;;;;;-145.63;100.00;61273.97;5134917;27;20038;-65
2024/03/21 08:38:30;;;;;;;26.33;17.83;;;;;;;-145.63;100.00;61273.97;5131197;27;20110;-65
2024/03/21 08:40:55;;;;;;;26.70;17.75;;;;;;;-145.63;100.00;61273.97;5133114;27;20110;-64
2024/03/21 08:43:22;;;;;;;28.35;18.90;;;;;;;-145.63;100.00;61273.97;5133171;27;20130;-65
2024/03/21 08:45:48;;;;;;;25.40;18.33;;;;;;;-145.63;100.00;61273.97;5133972;27;20070;-63
2024/03/21 08:48:15;;;;;;;25.70;18.60;;;;;;;-145.63;100.00;61273.97;5125160;27;20341;-64
2024/03/21 08:50:47;;;;;;;27.15;19.45;;;;;;;-145.63;100.00;61273.97;5117960;27;20042;-64
2024/03/21 08:53:13;;;;;;;27.33;19.13;;;;;;;-145.63;100.00;61273.97;5096038;28;20383;-64
2024/03/21 08:55:39;;;;;;;31.63;19.35;;;;;;;-145.63;100.00;61273.97;5128315;27;20452;-64
2024/03/21 08:58:05;;;;;;;25.83;17.98;;;;;;;-145.63;100.00;61273.97;5129720;27;20033;-64
2024/03/21 09:00:37;;;;;;;28.30;18.17;;;;;;;-145.63;100.00;61273.97;5126114;27;20027;-65
2024/03/21 09:03:09;;;;;;;24.88;17.17;;;;;;;-145.63;100.00;61273.97;5124112;27;20051;-65
2024/03/21 09:05:34;;;;;;;26.20;17.02;;;;;;;-145.63;100.00;61273.97;5121829;27;20468;-63
2024/03/21 09:08:00;;;;;;;31.38;16.98;;;;;;;-145.63;100.00;61273.97;5128671;27;20035;-64
2024/03/21 09:10:26;;;;;;;20.48;17.05;;;;;;;-145.63;100.00;61273.97;5125434;27;20058;-66
2024/03/21 09:12:52;;;;;;;29.27;17.40;;;;;;;-145.63;100.00;61273.97;5101790;27;20032;-65
2024/03/21 09:15:18;;;;;;;28.65;17.23;;;;;;;-145.63;100.00;61273.97;5114010;27;20031;-65
2024/03/21 09:17:45;;;;;;;26.60;17.75;;;;;;;-145.63;100.00;61273.97;5128277;27;20416;-64
2024/03/21 09:20:11;;;;;;;24.90;16.52;;;;;;;-145.63;100.00;61273.97;5123808;27;20063;-64
2024/03/21 09:22:37;;;;;;;23.70;15.65;;;;;;;-145.63;100.00;61273.97;5128870;27;20042;-64
2024/03/21 09:25:04;;;;;;;27.98;17.13;;;;;;;-145.63;100.00;61273.97;5130105;27;20536;-66
2024/03/21 09:27:32;;;;;;;27.90;17.20;;;;;;;-145.63;100.00;61273.97;5134622;27;20027;-66
2024/03/21 09:29:57;;;;;;;26.23;17.02;;;;;;;-145.63;100.00;61273.97;5127382;27;20156;-64
2024/03/21 09:32:23;;;;;;;24.15;16.80;;;;;;;-145.63;100.00;61273.97;5116220;27;20047;-64
2024/03/21 09:34:52;;;;;;;25.65;17.70;;;;;;;-145.63;100.00;61273.97;5134408;27;20348;-64
2024/03/21 09:37:19;;;;;;;24.80;17.17;;;;;;;-145.63;100.00;61273.97;5115221;27;20081;-66
2024/03/21 09:39:46;;;;;;;23.55;16.20;;;;;;;-145.63;100.00;61273.97;5120231;27;20055;-64
2024/03/21 09:42:19;;;;;;;21.90;14.70;;;;;;;-145.63;100.00;61273.97;5122734;27;20164;-65
2024/03/21 09:44:53;;;;;;;25.30;15.95;;;;;;;-145.63;100.00;61273.97;5128738;27;20384;-63
2024/03/21 09:47:20;;;;;;;25.05;14.25;;;;;;;-145.63;100.00;61273.97;5126798;27;20027;-64
2024/03/21 09:49:48;;;;;;;22.73;14.98;;;;;;;-145.63;100.00;61273.97;5113617;28;20110;-66
2024/03/21 09:52:15;;;;;;;26.23;15.18;;;;;;;-145.63;100.00;61273.97;5131456;27;20107;-66
2024/03/21 09:54:41;;;;;;;22.90;14.10;;;;;;;-145.63;100.00;61273.97;5120922;27;20035;-64
2024/03/21 09:57:12;;;;;;;21.73;14.65;;;;;;;-145.63;100.00;61273.97;5119609;27;20023;-66
2024/03/21 09:59:38;;;;;;;26.58;15.93;;;;;;;-145.63;100.00;61273.97;5129949;27;20491;-64
2024/03/21 10:02:07;;;;;;;25.88;15.50;;;;;;;-145.63;100.00;61273.97;5112980;28;20059;-64
2024/03/21 10:04:44;;;;;;;29.80;15.85;;;;;;;-145.63;100.00;61273.97;5113113;28;20038;-65
2024/03/21 10:07:21;;;;;;;27.65;16.08;;;;;;;-145.63;100.00;61273.97;5130277;27;20480;-64
2024/03/21 10:09:54;;;;;;;26.92;16.50;;;;;;;-145.63;100.00;61273.97;5120245;27;20368;-65
2024/03/21 10:12:20;;;;;;;26.15;15.43;;;;;;;-145.63;100.00;61273.97;5123058;27;20035;-64
2024/03/21 10:14:46;;;;;;;28.55;16.67;;;;;;;-145.63;100.00;61273.97;5133659;27;20411;-65
2024/03/21 10:17:12;;;;;;;28.27;16.65;;;;;;;-145.63;100.00;61273.97;5133584;27;20099;-64
2024/03/21 10:19:37;;;;;;;23.98;15.00;;;;;;;-145.63;100.00;61273.97;5113155;28;20089;-64
2024/03/21 10:22:03;;;;;;;21.73;14.07;;;;;;;-145.63;100.00;61273.97;5129037;27;20035;-64
2024/03/21 10:24:30;;;;;;;24.83;13.90;;;;;;;-145.63;100.00;61273.97;5132898;27;20039;-65
2024/03/21 10:26:56;;;;;;;18.52;12.38;;;;;;;-145.63;100.00;61273.97;5127393;27;20051;-64
2024/03/21 10:29:26;;;;;;;21.77;13.10;;;;;;;-145.63;100.00;61273.97;5112850;28;20038;-64
2024/03/21 10:31:54;;;;;;;18.40;12.00;;;;;;;-145.63;100.00;61273.97;5095514;28;20178;-65
2024/03/21 10:34:23;;;;;;;15.20;11.52;;;;;;;-145.63;100.00;61273.97;5131088;27;20042;-65
2024/03/21 10:36:48;;;;;;;15.05;10.75;;;;;;;-145.63;100.00;61273.97;5133552;27;20053;-64
2024/03/21 10:39:14;;;;;;;17.80;10.88;;;;;;;-145.63;100.00;61273.97;5123979;27;20032;-64
2024/03/21 10:41:42;;;;;;;17.38;11.27;;;;;;;-145.63;100.00;61273.97;5112934;28;20055;-66
2024/03/21 10:44:13;;;;;;;17.75;11.57;;;;;;;-145.63;100.00;61273.97;5113123;28;20040;-64
2024/03/21 10:46:39;;;;;;;15.52;11.75;;;;;;;-145.63;100.00;61273.97;5112379;28;20060;-65
2024/03/21 10:49:05;;;;;;;15.55;9.88;;;;;;;-145.63;100.00;61273.97;5112117;28;20391;-64
2024/03/21 10:51:39;;;;;;;13.48;9.68;;;;;;;-145.63;100.00;61273.97;5123624;28;20094;-64
2024/03/21 10:54:04;;;;;;;17.73;9.98;;;;;;;-145.63;100.00;61273.97;5125949;28;20028;-65